createdAt,value
2023-04-16T00:00:16.062Z,12.43
2023-04-16T00:02:51.296Z,11.27
2023-04-16T00:05:25.718Z,11.60
2023-04-16T00:08:01.099Z,8.67
2023-04-16T00:10:39.110Z,9.20
2023-04-16T00:13:16.484Z,10.23
2023-04-16T00:15:50.431Z,10.67
2023-04-16T00:18:27.764Z,9.67
2023-04-16T00:21:08.545Z,12.57
2023-04-16T00:23:42.149Z,12.53
2023-04-16T00:26:16.605Z,12.27
2023-04-16T00:28:52.016Z,11.63
2023-04-16T00:31:30.365Z,12.97
2023-04-16T00:34:05.783Z,11.07
2023-04-16T00:36:39.272Z,14.27
2023-04-16T00:39:13.349Z,13.40
2023-04-16T00:41:47.625Z,10.73
2023-04-16T00:44:24.028Z,11.80
2023-04-16T00:46:58.776Z,11.87
2023-04-16T00:49:33.119Z,11.30
2023-04-16T00:52:07.076Z,11.83
2023-04-16T00:54:42.541Z,15.87
2023-04-16T00:57:16.988Z,11.03
2023-04-16T00:59:53.115Z,12.37
2023-04-16T01:02:27.717Z,12.43
2023-04-16T01:05:03.577Z,14.87
2023-04-16T01:07:39.027Z,13.13
2023-04-16T01:10:13.043Z,13.97
2023-04-16T01:12:46.850Z,14.10
2023-04-16T01:15:22.396Z,11.73
2023-04-16T01:17:55.943Z,10.70
2023-04-16T01:20:31.436Z,13.37
2023-04-16T01:23:06.881Z,13.43
2023-04-16T01:25:41.272Z,13.90
2023-04-16T01:28:19.737Z,12.43
2023-04-16T01:30:57.062Z,15.17
2023-04-16T01:33:31.523Z,13.17
2023-04-16T01:36:05.987Z,11.30
2023-04-16T01:38:41.514Z,15.20
2023-04-16T01:41:15.446Z,14.23
2023-04-16T01:43:53.349Z,15.13
2023-04-16T01:46:30.746Z,14.37
2023-04-16T01:49:07.554Z,13.33
2023-04-16T01:51:44.793Z,13.80
2023-04-16T01:54:20.367Z,13.60
2023-04-16T01:56:54.275Z,11.47
2023-04-16T01:59:29.701Z,14.47
2023-04-16T02:02:11.259Z,12.33
2023-04-16T02:04:47.777Z,14.90
2023-04-16T02:07:21.719Z,15.97
2023-04-16T02:09:58.426Z,13.70
2023-04-16T02:12:34.827Z,14.50
2023-04-16T02:15:10.017Z,13.67
2023-04-16T02:17:43.849Z,15.10
2023-04-16T02:20:18.277Z,13.67
2023-04-16T02:22:52.294Z,15.47
2023-04-16T02:25:27.733Z,14.07
2023-04-16T02:28:01.422Z,14.13
2023-04-16T02:30:38.954Z,12.43
2023-04-16T02:33:14.751Z,12.37
2023-04-16T02:35:48.733Z,12.97
2023-04-16T02:38:24.740Z,11.77
2023-04-16T02:40:59.987Z,11.07
2023-04-16T02:43:33.654Z,11.30
2023-04-16T02:46:07.650Z,11.97
2023-04-16T02:48:42.514Z,10.57
2023-04-16T02:51:16.906Z,11.70
2023-04-16T02:53:53.157Z,11.40
2023-04-16T02:56:28.177Z,9.63
2023-04-16T02:59:01.651Z,9.90
2023-04-16T03:01:35.967Z,10.83
2023-04-16T03:04:09.877Z,10.83
2023-04-16T03:06:43.999Z,10.67
2023-04-16T03:09:17.860Z,10.83
2023-04-16T03:11:57.222Z,11.43
2023-04-16T03:14:31.370Z,11.67
2023-04-16T03:17:05.416Z,10.33
2023-04-16T03:19:39.227Z,9.60
2023-04-16T03:22:14.437Z,11.20
2023-04-16T03:25:01.208Z,11.10
2023-04-16T03:27:42.873Z,12.20
2023-04-16T03:30:17.663Z,13.07
2023-04-16T03:32:52.096Z,11.70
2023-04-16T03:35:33.490Z,12.07
2023-04-16T03:38:07.363Z,10.93
2023-04-16T03:40:41.688Z,11.80
2023-04-16T03:43:17.225Z,12.83
2023-04-16T03:45:50.891Z,13.07
2023-04-16T03:48:30.012Z,13.30
2023-04-16T03:51:04.175Z,13.07
2023-04-16T03:53:37.872Z,14.17
2023-04-16T03:56:15.071Z,12.97
2023-04-16T03:58:50.458Z,13.00
2023-04-16T04:01:23.834Z,13.60
2023-04-16T04:03:57.414Z,13.13
2023-04-16T04:06:31.287Z,11.90
2023-04-16T04:09:05.828Z,13.37
2023-04-16T04:11:42.413Z,15.90
2023-04-16T04:14:20.041Z,16.37
2023-04-16T04:16:53.660Z,16.27
2023-04-16T04:19:27.621Z,16.77
2023-04-16T04:22:01.533Z,16.17
2023-04-16T04:24:35.600Z,16.77
2023-04-16T04:27:09.875Z,13.03
2023-04-16T04:29:45.878Z,16.27
2023-04-16T04:32:23.141Z,14.97
2023-04-16T04:34:57.286Z,14.77
2023-04-16T04:37:32.973Z,16.90
2023-04-16T04:40:12.268Z,14.13
2023-04-16T04:42:46.013Z,15.13
2023-04-16T04:45:44.699Z,15.57
2023-04-16T04:48:18.779Z,17.80
2023-04-16T04:50:52.739Z,14.70
2023-04-16T04:53:26.608Z,17.83
2023-04-16T04:56:10.976Z,14.63
2023-04-16T04:58:46.237Z,18.17
2023-04-16T05:01:22.801Z,16.07
2023-04-16T05:03:56.335Z,15.60
2023-04-16T05:06:30.114Z,18.67
2023-04-16T05:09:05.342Z,15.57
2023-04-16T05:11:45.186Z,17.37
2023-04-16T05:14:19.162Z,17.57
2023-04-16T05:16:54.955Z,15.63
2023-04-16T05:19:53.930Z,16.63
2023-04-16T05:22:28.075Z,15.17
2023-04-16T05:25:02.185Z,16.47
2023-04-16T05:27:45.856Z,19.83
2023-04-16T05:30:20.445Z,16.20
2023-04-16T05:32:55.988Z,17.67
2023-04-16T05:35:29.607Z,17.53
2023-04-16T05:38:05.096Z,17.00
2023-04-16T05:40:38.840Z,17.43
2023-04-16T05:43:12.467Z,17.03
2023-04-16T05:45:49.580Z,17.70
2023-04-16T05:48:25.423Z,17.30
2023-04-16T05:50:59.420Z,16.63
2023-04-16T05:53:32.915Z,16.63
2023-04-16T05:56:07.881Z,18.00
2023-04-16T05:58:41.876Z,16.57
2023-04-16T06:01:15.620Z,17.50
2023-04-16T06:03:53.599Z,17.87
2023-04-16T06:06:28.185Z,19.03
2023-04-16T06:09:01.967Z,16.43
2023-04-16T06:11:36.561Z,14.80
2023-04-16T06:14:10.592Z,17.50
2023-04-16T06:16:45.044Z,17.53
2023-04-16T06:19:20.366Z,16.67
2023-04-16T06:21:55.050Z,17.30
2023-04-16T06:24:28.961Z,18.27
2023-04-16T06:27:03.112Z,18.57
2023-04-16T06:29:41.252Z,15.50
2023-04-16T06:32:17.640Z,17.03
2023-04-16T06:34:53.281Z,18.67
2023-04-16T06:37:27.474Z,21.37
2023-04-16T06:40:01.203Z,17.20
2023-04-16T06:42:35.414Z,16.37
2023-04-16T06:45:11.096Z,16.93
2023-04-16T06:47:44.637Z,16.93
2023-04-16T06:50:20.666Z,19.17
2023-04-16T06:52:56.705Z,17.80
2023-04-16T06:55:30.766Z,16.87
2023-04-16T06:58:05.146Z,16.77
2023-04-16T07:00:39.903Z,17.83
2023-04-16T07:03:14.159Z,18.30
2023-04-16T07:05:50.032Z,18.60
2023-04-16T07:08:23.672Z,18.30
2023-04-16T07:10:57.520Z,17.03
2023-04-16T07:13:31.218Z,18.53
2023-04-16T07:16:05.066Z,16.03
2023-04-16T07:18:39.069Z,17.20
2023-04-16T07:21:16.530Z,17.20
2023-04-16T07:23:52.497Z,16.37
2023-04-16T07:26:26.396Z,17.20
2023-04-16T07:28:59.976Z,17.97
2023-04-16T07:31:34.197Z,18.53
2023-04-16T07:34:07.943Z,18.17
2023-04-16T07:36:43.280Z,16.50
2023-04-16T07:39:17.267Z,16.07
2023-04-16T07:41:51.097Z,15.50
2023-04-16T07:44:25.010Z,16.50
2023-04-16T07:46:59.084Z,16.47
2023-04-16T07:49:37.330Z,17.03
2023-04-16T07:52:14.259Z,15.90
2023-04-16T07:54:48.464Z,18.13
2023-04-16T07:57:24.344Z,16.73
2023-04-16T07:59:57.884Z,17.17
2023-04-16T08:02:32.421Z,16.40
2023-04-16T08:05:07.971Z,18.73
2023-04-16T08:07:43.037Z,17.27
2023-04-16T08:10:17.255Z,18.27
2023-04-16T08:12:51.006Z,16.30
2023-04-16T08:15:33.539Z,16.63
2023-04-16T08:18:13.043Z,15.13
2023-04-16T08:20:47.056Z,16.37
2023-04-16T08:23:24.649Z,17.03
2023-04-16T08:25:58.617Z,17.53
2023-04-16T08:28:32.878Z,17.63
2023-04-16T08:31:06.718Z,16.10
2023-04-16T08:33:42.290Z,16.00
2023-04-16T08:36:16.173Z,15.03
2023-04-16T08:38:52.736Z,16.70
2023-04-16T08:41:32.341Z,15.47
2023-04-16T08:44:10.815Z,13.67
2023-04-16T08:46:45.893Z,14.13
2023-04-16T08:49:20.149Z,14.10
2023-04-16T08:51:56.887Z,15.77
2023-04-16T08:54:45.894Z,13.80
2023-04-16T08:57:41.397Z,12.67
2023-04-16T09:00:17.803Z,13.90
2023-04-16T09:02:53.155Z,13.97
2023-04-16T09:05:31.749Z,15.30
2023-04-16T09:08:07.172Z,11.20
2023-04-16T09:10:42.268Z,14.17
2023-04-16T09:13:18.046Z,14.07
2023-04-16T09:15:55.021Z,13.87
2023-04-16T09:18:32.317Z,13.13
2023-04-16T09:21:10.697Z,13.43
2023-04-16T09:23:45.180Z,14.40
2023-04-16T09:26:29.355Z,13.23
2023-04-16T09:29:06.734Z,13.40
2023-04-16T09:31:40.317Z,12.23
2023-04-16T09:34:15.930Z,12.83
2023-04-16T09:36:49.670Z,14.60
2023-04-16T09:39:25.989Z,12.80
2023-04-16T09:42:01.112Z,12.73
2023-04-16T09:44:38.062Z,12.47
2023-04-16T09:47:12.504Z,12.53
2023-04-16T09:49:47.439Z,12.73
2023-04-16T09:52:24.725Z,13.33
2023-04-16T09:54:58.259Z,12.90
2023-04-16T09:57:35.878Z,12.07
2023-04-16T10:00:12.200Z,13.43
2023-04-16T10:02:49.241Z,12.57
2023-04-16T10:05:24.485Z,13.07
2023-04-16T10:08:23.258Z,12.33
2023-04-16T10:10:58.484Z,13.23
2023-04-16T10:13:34.469Z,14.93
2023-04-16T10:16:11.182Z,13.10
2023-04-16T10:18:47.647Z,10.93
2023-04-16T10:21:23.366Z,13.00
2023-04-16T10:23:57.462Z,13.33
2023-04-16T10:26:51.337Z,12.80
2023-04-16T10:29:31.184Z,13.83
2023-04-16T10:32:13.250Z,12.47
2023-04-16T10:34:48.580Z,12.40
2023-04-16T10:37:32.616Z,12.83
2023-04-16T10:40:28.346Z,14.43
2023-04-16T10:43:03.395Z,12.83
2023-04-16T10:45:43.967Z,12.53
2023-04-16T10:48:20.732Z,12.77
2023-04-16T10:51:00.558Z,11.83
2023-04-16T10:53:34.653Z,12.03
2023-04-16T10:56:15.665Z,12.87
2023-04-16T10:58:50.689Z,12.00
2023-04-16T11:01:36.421Z,12.57
2023-04-16T11:04:30.837Z,11.40
2023-04-16T11:07:20.028Z,11.63
2023-04-16T11:09:57.757Z,13.20
2023-04-16T11:12:39.204Z,12.10
2023-04-16T11:15:23.531Z,11.07
2023-04-16T11:18:04.067Z,11.03
2023-04-16T11:20:43.229Z,12.23
2023-04-16T11:23:16.912Z,12.77
2023-04-16T11:25:52.203Z,11.47
2023-04-16T11:28:36.129Z,10.37
2023-04-16T11:31:13.779Z,11.37
2023-04-16T11:33:48.847Z,9.93
2023-04-16T11:36:26.176Z,10.07
2023-04-16T11:39:07.753Z,10.17
2023-04-16T11:41:50.093Z,10.43
2023-04-16T11:44:25.980Z,9.67
2023-04-16T11:47:00.002Z,10.53
2023-04-16T11:49:35.325Z,11.17
2023-04-16T11:52:11.096Z,12.77
2023-04-16T11:54:52.242Z,10.70
2023-04-16T11:57:28.441Z,10.70
2023-04-16T12:00:08.056Z,11.47
2023-04-16T12:02:45.569Z,11.57
2023-04-16T12:05:38.422Z,10.03
2023-04-16T12:08:13.710Z,10.57
2023-04-16T12:11:00.214Z,10.77
2023-04-16T12:13:40.464Z,11.07
2023-04-16T12:16:22.471Z,10.27
2023-04-16T12:19:04.343Z,10.67
2023-04-16T12:21:42.605Z,10.97
2023-04-16T12:24:21.585Z,11.00
2023-04-16T12:26:58.043Z,13.47
2023-04-16T12:29:32.247Z,12.07
2023-04-16T12:32:06.228Z,9.93
2023-04-16T12:34:52.826Z,11.37
2023-04-16T12:37:28.095Z,10.80
2023-04-16T12:40:02.266Z,10.90
2023-04-16T12:42:39.279Z,9.23
2023-04-16T12:45:15.425Z,9.83
2023-04-16T12:48:03.476Z,10.73
2023-04-16T12:50:42.095Z,10.87
2023-04-16T12:53:17.640Z,9.73
2023-04-16T12:55:51.978Z,10.40
2023-04-16T12:58:28.454Z,9.90
2023-04-16T13:01:04.737Z,9.43
2023-04-16T13:03:39.123Z,10.13
2023-04-16T13:06:13.845Z,9.90
2023-04-16T13:08:49.378Z,9.80
2023-04-16T13:11:23.750Z,9.33
2023-04-16T13:13:59.265Z,9.87
2023-04-16T13:16:33.341Z,8.57
2023-04-16T13:19:19.204Z,9.67
2023-04-16T13:21:53.591Z,9.07
2023-04-16T13:24:29.353Z,12.07
2023-04-16T13:27:03.211Z,10.83
2023-04-16T13:29:39.888Z,10.03
2023-04-16T13:32:17.541Z,8.60
2023-04-16T13:34:51.658Z,10.53
2023-04-16T13:37:25.526Z,14.30
2023-04-16T13:40:01.101Z,11.20
2023-04-16T13:42:34.989Z,9.87
2023-04-16T13:45:10.508Z,11.13
2023-04-16T13:47:47.647Z,10.67
2023-04-16T13:50:24.625Z,10.50
2023-04-16T13:53:04.526Z,11.67
2023-04-16T13:55:40.281Z,12.00
2023-04-16T13:58:13.801Z,10.50
2023-04-16T14:00:48.135Z,10.43
2023-04-16T14:03:23.478Z,10.10
2023-04-16T14:06:00.325Z,10.00
2023-04-16T14:08:34.710Z,10.90
2023-04-16T14:11:13.150Z,9.47
2023-04-16T14:13:47.311Z,10.10
2023-04-16T14:16:21.075Z,10.77
2023-04-16T14:18:56.889Z,13.20
2023-04-16T14:21:33.393Z,10.63
2023-04-16T14:24:12.291Z,10.27
2023-04-16T14:26:48.292Z,9.50
2023-04-16T14:29:23.088Z,9.77
2023-04-16T14:31:57.244Z,9.97
2023-04-16T14:34:31.436Z,9.90
2023-04-16T14:37:05.530Z,10.07
2023-04-16T14:39:39.894Z,9.43
2023-04-16T14:42:23.169Z,10.53
2023-04-16T14:44:57.591Z,10.93
2023-04-16T14:47:36.761Z,9.53
2023-04-16T14:50:12.266Z,10.57
2023-04-16T14:52:47.330Z,8.97
2023-04-16T14:55:21.622Z,8.87
2023-04-16T14:57:57.730Z,8.07
2023-04-16T15:00:35.118Z,8.40
2023-04-16T15:03:09.275Z,9.00
2023-04-16T15:05:44.932Z,8.80
2023-04-16T15:08:18.721Z,8.50
2023-04-16T15:10:55.409Z,8.83
2023-04-16T15:13:35.332Z,8.97
2023-04-16T15:16:09.065Z,7.80
2023-04-16T15:18:43.175Z,7.23
2023-04-16T15:21:17.082Z,7.77
2023-04-16T15:23:51.097Z,7.27
2023-04-16T15:26:24.703Z,9.00
2023-04-16T15:29:00.142Z,7.87
2023-04-16T15:31:34.583Z,7.37
2023-04-16T15:34:09.236Z,7.40
2023-04-16T15:36:44.460Z,8.87
2023-04-16T15:39:20.277Z,7.37
2023-04-16T15:42:01.117Z,9.80
2023-04-16T15:44:41.201Z,7.90
2023-04-16T15:47:17.425Z,8.80
2023-04-16T15:49:51.818Z,8.43
2023-04-16T15:52:26.304Z,8.10
2023-04-16T15:55:04.382Z,7.23
2023-04-16T15:57:38.891Z,6.97
2023-04-16T16:00:21.490Z,8.27
2023-04-16T16:02:55.651Z,7.10
2023-04-16T16:05:29.770Z,7.80
2023-04-16T16:08:03.577Z,8.53
2023-04-16T16:10:37.831Z,7.33
2023-04-16T16:13:16.297Z,8.27
2023-04-16T16:15:52.010Z,8.43
2023-04-16T16:18:26.596Z,7.60
2023-04-16T16:21:02.093Z,7.27
2023-04-16T16:23:36.227Z,8.60
2023-04-16T16:26:10.956Z,7.33
2023-04-16T16:28:45.548Z,6.27
2023-04-16T16:31:21.382Z,7.33
2023-04-16T16:33:55.040Z,7.57
2023-04-16T16:36:30.216Z,6.80
2023-04-16T16:39:07.581Z,8.67
2023-04-16T16:41:45.880Z,7.10
2023-04-16T16:44:20.750Z,6.53
2023-04-16T16:46:58.913Z,6.87
2023-04-16T16:49:32.931Z,5.90
2023-04-16T16:52:07.180Z,6.03
2023-04-16T16:54:43.027Z,6.30
2023-04-16T16:57:17.281Z,6.27
2023-04-16T16:59:52.275Z,7.50
2023-04-16T17:02:43.184Z,7.67
2023-04-16T17:05:17.542Z,7.97
2023-04-16T17:07:51.593Z,8.43
2023-04-16T17:10:25.794Z,9.17
2023-04-16T17:13:00.116Z,7.93
2023-04-16T17:15:35.611Z,7.57
2023-04-16T17:18:11.520Z,7.73
2023-04-16T17:20:48.812Z,7.63
2023-04-16T17:23:22.620Z,7.57
2023-04-16T17:25:56.789Z,7.20
2023-04-16T17:28:32.123Z,7.43
2023-04-16T17:31:08.645Z,9.00
2023-04-16T17:33:44.075Z,9.67
2023-04-16T17:36:19.924Z,8.07
2023-04-16T17:38:54.962Z,8.83
2023-04-16T17:41:29.593Z,6.20
2023-04-16T17:44:03.413Z,8.03
2023-04-16T17:46:37.968Z,8.57
2023-04-16T17:49:13.619Z,8.37
2023-04-16T17:51:49.024Z,9.73
2023-04-16T17:54:22.781Z,12.67
2023-04-16T17:56:57.580Z,9.90
2023-04-16T17:59:35.644Z,13.30
2023-04-16T18:02:09.838Z,13.03
2023-04-16T18:04:45.793Z,14.57
2023-04-16T18:07:20.293Z,9.60
2023-04-16T18:09:54.378Z,13.70
2023-04-16T18:12:28.287Z,12.60
2023-04-16T18:15:08.601Z,13.00
2023-04-16T18:17:42.072Z,12.37
2023-04-16T18:20:20.017Z,11.77
2023-04-16T18:22:54.040Z,12.03
2023-04-16T18:25:34.395Z,11.33
2023-04-16T18:28:13.926Z,11.47
2023-04-16T18:30:51.768Z,10.70
2023-04-16T18:33:52.428Z,14.70
2023-04-16T18:36:21.176Z,12.03
2023-04-16T18:41:36.652Z,15.00
2023-04-16T18:44:11.074Z,10.40
2023-04-16T18:46:53.609Z,13.27
2023-04-16T18:49:28.284Z,11.63
2023-04-16T18:52:03.640Z,11.67
2023-04-16T18:54:38.338Z,13.73
2023-04-16T18:57:11.957Z,13.50
2023-04-16T18:59:45.701Z,11.97
2023-04-16T19:02:20.461Z,13.43
2023-04-16T19:04:54.513Z,13.80
2023-04-16T19:07:30.378Z,10.97
2023-04-16T19:10:04.916Z,10.80
2023-04-16T19:12:39.222Z,13.27
2023-04-16T19:15:15.065Z,12.47
2023-04-16T19:17:48.748Z,11.90
2023-04-16T19:20:22.461Z,10.63
2023-04-16T19:23:00.361Z,11.47
2023-04-16T19:25:34.893Z,9.90
2023-04-16T19:28:09.728Z,11.80
2023-04-16T19:30:47.109Z,9.40
2023-04-16T19:33:20.948Z,10.80
2023-04-16T19:35:54.820Z,9.67
2023-04-16T19:38:32.128Z,10.57
2023-04-16T19:41:06.092Z,10.07
2023-04-16T19:43:40.047Z,8.70
2023-04-16T19:46:15.742Z,11.03
2023-04-16T19:48:52.088Z,10.03
2023-04-16T19:51:27.635Z,9.10
2023-04-16T19:54:03.272Z,9.40
2023-04-16T19:56:37.048Z,8.87
2023-04-16T19:59:11.351Z,11.67
2023-04-16T20:01:45.605Z,10.77
2023-04-16T20:04:20.926Z,10.37
2023-04-16T20:06:54.955Z,10.27
2023-04-16T20:09:30.521Z,10.30
2023-04-16T20:12:04.584Z,9.37
2023-04-16T20:14:39.341Z,6.73
2023-04-16T20:17:19.040Z,8.03
2023-04-16T20:19:54.086Z,10.93
2023-04-16T20:22:28.183Z,8.30
2023-04-16T20:25:05.933Z,8.77
2023-04-16T20:27:39.984Z,8.97
2023-04-16T20:30:15.631Z,8.63
2023-04-16T20:32:49.674Z,9.43
2023-04-16T20:35:23.684Z,8.07
2023-04-16T20:37:59.407Z,11.50
2023-04-16T20:40:39.289Z,8.83
2023-04-16T20:43:14.430Z,9.13
2023-04-16T20:45:52.565Z,10.93
2023-04-16T20:48:29.267Z,7.67
2023-04-16T20:51:04.350Z,9.27
2023-04-16T20:53:38.633Z,11.43
2023-04-16T20:56:17.812Z,10.10
2023-04-16T20:58:53.130Z,9.73
2023-04-16T21:01:27.207Z,12.00
2023-04-16T21:04:01.131Z,10.07
2023-04-16T21:06:38.689Z,9.93
2023-04-16T21:09:13.173Z,11.07
2023-04-16T21:11:50.623Z,12.93
2023-04-16T21:14:24.827Z,12.47
2023-04-16T21:16:58.549Z,12.63
2023-04-16T21:19:32.656Z,13.67
2023-04-16T21:22:07.029Z,15.30
2023-04-16T21:24:41.179Z,14.53
2023-04-16T21:27:17.338Z,12.30
2023-04-16T21:29:52.786Z,13.27
2023-04-16T21:32:27.933Z,12.70
2023-04-16T21:35:01.631Z,12.93
2023-04-16T21:37:35.437Z,12.87
2023-04-16T21:40:10.851Z,11.93
2023-04-16T21:42:46.668Z,14.40
2023-04-16T21:45:20.626Z,14.33
2023-04-16T21:47:55.043Z,12.37
2023-04-16T21:50:28.690Z,19.03
2023-04-16T21:53:06.715Z,18.57
2023-04-16T21:55:44.391Z,25.03
2023-04-16T21:58:19.763Z,21.60
2023-04-16T22:00:56.887Z,19.00
2023-04-16T22:03:32.105Z,18.47
2023-04-16T22:06:06.051Z,17.87
2023-04-16T22:08:40.026Z,18.50
2023-04-16T22:11:17.574Z,18.47
2023-04-16T22:13:53.747Z,17.47
2023-04-16T22:16:27.569Z,16.83
2023-04-16T22:19:01.829Z,16.20
2023-04-16T22:21:35.990Z,16.47
2023-04-16T22:24:11.145Z,14.87
2023-04-16T22:26:46.569Z,14.23
2023-04-16T22:29:23.334Z,15.40
2023-04-16T22:31:57.711Z,13.97
2023-04-16T22:34:33.252Z,12.17
2023-04-16T22:37:08.575Z,15.00
2023-04-16T22:39:42.603Z,13.33
2023-04-16T22:42:16.354Z,13.30
2023-04-16T22:44:55.742Z,15.17
2023-04-16T22:47:29.499Z,12.43
2023-04-16T22:50:04.181Z,13.53
2023-04-16T22:52:38.321Z,13.20
2023-04-16T22:55:11.968Z,13.80
2023-04-16T22:57:46.213Z,13.17
2023-04-16T23:00:23.689Z,16.33
2023-04-16T23:03:00.692Z,11.87
2023-04-16T23:05:34.722Z,14.20
2023-04-16T23:08:09.634Z,18.03
2023-04-16T23:10:44.217Z,13.63
2023-04-16T23:13:17.977Z,15.23
2023-04-16T23:15:54.999Z,14.77
2023-04-16T23:18:31.692Z,13.57
2023-04-16T23:21:06.082Z,14.40
2023-04-16T23:23:40.204Z,13.07
2023-04-16T23:26:16.135Z,13.00
2023-04-16T23:28:49.865Z,14.33
2023-04-16T23:31:26.809Z,15.63
2023-04-16T23:34:01.754Z,14.17
2023-04-16T23:36:35.711Z,14.97
2023-04-16T23:39:09.887Z,13.83
2023-04-16T23:41:44.080Z,14.50
2023-04-16T23:44:19.557Z,15.17
2023-04-16T23:46:55.072Z,13.37
2023-04-16T23:49:29.099Z,14.73
2023-04-16T23:52:03.681Z,13.73
2023-04-16T23:54:39.144Z,13.93
2023-04-16T23:57:13.050Z,15.07
2023-04-16T23:59:48.099Z,15.33
